sensor_id;sensor_type;location;lat;lon;timestamp;P1;durP1;ratioP1;P2;durP2;ratioP2
37019;SDS011;22932;52.442;16.896;2022-11-20T07:18:09;23.50;;;15.90;;
37019;SDS011;22932;52.442;16.896;2022-11-20T07:20:38;23.40;;;15.70;;
37019;SDS011;22932;52.442;16.896;2022-11-20T07:23:08;23.70;;;16.80;;
37019;SDS011;22932;52.442;16.896;2022-11-20T07:25:37;21.30;;;15.60;;
37019;SDS011;22932;52.442;16.896;2022-11-20T07:28:06;22.90;;;15.50;;
37019;SDS011;22932;52.442;16.896;2022-11-20T07:30:37;19.00;;;15.20;;
37019;SDS011;22932;52.442;16.896;2022-11-20T07:33:06;22.90;;;17.10;;
37019;SDS011;22932;52.442;16.896;2022-11-20T07:35:36;23.60;;;17.40;;
37019;SDS011;22932;52.442;16.896;2022-11-20T07:38:05;25.30;;;16.70;;
37019;SDS011;22932;52.442;16.896;2022-11-20T07:40:34;24.10;;;16.90;;
37019;SDS011;22932;52.442;16.896;2022-11-20T07:43:04;22.80;;;15.20;;
37019;SDS011;22932;52.442;16.896;2022-11-20T07:45:33;23.30;;;17.10;;
37019;SDS011;22932;52.442;16.896;2022-11-20T07:48:03;22.60;;;16.00;;
37019;SDS011;22932;52.442;16.896;2022-11-20T07:50:33;21.40;;;16.90;;
37019;SDS011;22932;52.442;16.896;2022-11-20T07:53:03;24.60;;;15.50;;
37019;SDS011;22932;52.442;16.896;2022-11-20T07:55:33;24.40;;;17.80;;
37019;SDS011;22932;52.442;16.896;2022-11-20T07:58:02;24.10;;;17.10;;
37019;SDS011;22932;52.442;16.896;2022-11-20T08:00:32;23.90;;;17.20;;
37019;SDS011;22932;52.442;16.896;2022-11-20T08:03:03;24.30;;;17.00;;
37019;SDS011;22932;52.442;16.896;2022-11-20T08:05:33;26.00;;;18.10;;
37019;SDS011;22932;52.442;16.896;2022-11-20T08:08:03;23.20;;;16.40;;
37019;SDS011;22932;52.442;16.896;2022-11-20T08:10:34;23.80;;;17.40;;
37019;SDS011;22932;52.442;16.896;2022-11-20T08:13:03;23.10;;;17.10;;
37019;SDS011;22932;52.442;16.896;2022-11-20T08:15:50;25.80;;;17.20;;
37019;SDS011;22932;52.442;16.896;2022-11-20T08:18:20;22.00;;;17.90;;
37019;SDS011;22932;52.442;16.896;2022-11-20T08:20:49;27.00;;;17.50;;
37019;SDS011;22932;52.442;16.896;2022-11-20T08:23:19;22.00;;;17.60;;
37019;SDS011;22932;52.442;16.896;2022-11-20T08:25:50;25.00;;;18.60;;
37019;SDS011;22932;52.442;16.896;2022-11-20T08:28:20;24.30;;;16.50;;
37019;SDS011;22932;52.442;16.896;2022-11-20T08:30:50;24.40;;;17.00;;
37019;SDS011;22932;52.442;16.896;2022-11-20T08:33:25;26.30;;;17.20;;
37019;SDS011;22932;52.442;16.896;2022-11-20T08:35:57;24.20;;;18.00;;
37019;SDS011;22932;52.442;16.896;2022-11-20T08:38:28;25.20;;;18.10;;
37019;SDS011;22932;52.442;16.896;2022-11-20T08:40:58;24.20;;;17.60;;
37019;SDS011;22932;52.442;16.896;2022-11-20T08:43:46;23.10;;;16.40;;
37019;SDS011;22932;52.442;16.896;2022-11-20T08:46:16;24.70;;;17.40;;
37019;SDS011;22932;52.442;16.896;2022-11-20T08:48:45;24.50;;;17.60;;
37019;SDS011;22932;52.442;16.896;2022-11-20T08:51:15;20.60;;;15.90;;
37019;SDS011;22932;52.442;16.896;2022-11-20T08:53:45;23.90;;;17.00;;
37019;SDS011;22932;52.442;16.896;2022-11-20T08:56:16;26.30;;;18.10;;
37019;SDS011;22932;52.442;16.896;2022-11-20T08:58:45;30.00;;;18.40;;
37019;SDS011;22932;52.442;16.896;2022-11-20T09:01:17;25.00;;;16.80;;
37019;SDS011;22932;52.442;16.896;2022-11-20T09:03:47;23.00;;;16.30;;
37019;SDS011;22932;52.442;16.896;2022-11-20T09:06:17;25.10;;;17.80;;
37019;SDS011;22932;52.442;16.896;2022-11-20T09:08:46;23.00;;;16.60;;
37019;SDS011;22932;52.442;16.896;2022-11-20T09:11:18;21.20;;;16.10;;
37019;SDS011;22932;52.442;16.896;2022-11-20T09:13:48;26.00;;;16.90;;
37019;SDS011;22932;52.442;16.896;2022-11-20T09:16:18;25.00;;;17.00;;
37019;SDS011;22932;52.442;16.896;2022-11-20T09:18:49;24.20;;;17.40;;
37019;SDS011;22932;52.442;16.896;2022-11-20T09:21:18;23.30;;;16.60;;
37019;SDS011;22932;52.442;16.896;2022-11-20T09:23:49;21.80;;;15.50;;
37019;SDS011;22932;52.442;16.896;2022-11-20T09:26:18;23.90;;;16.90;;
37019;SDS011;22932;52.442;16.896;2022-11-20T09:28:48;23.40;;;17.70;;
37019;SDS011;22932;52.442;16.896;2022-11-20T09:31:19;25.80;;;16.80;;
37019;SDS011;22932;52.442;16.896;2022-11-20T09:33:52;22.80;;;16.30;;
37019;SDS011;22932;52.442;16.896;2022-11-20T09:36:22;25.60;;;17.40;;
37019;SDS011;22932;52.442;16.896;2022-11-20T09:38:51;24.80;;;17.40;;
37019;SDS011;22932;52.442;16.896;2022-11-20T09:41:29;18.00;;;13.10;;
37019;SDS011;22932;52.442;16.896;2022-11-20T09:44:18;25.20;;;17.20;;
37019;SDS011;22932;52.442;16.896;2022-11-20T09:46:59;25.60;;;17.80;;
37019;SDS011;22932;52.442;16.896;2022-11-20T09:49:36;22.00;;;16.10;;
37019;SDS011;22932;52.442;16.896;2022-11-20T09:52:25;23.20;;;17.40;;
37019;SDS011;22932;52.442;16.896;2022-11-20T09:55:06;22.90;;;17.00;;
37019;SDS011;22932;52.442;16.896;2022-11-20T09:57:39;23.30;;;17.40;;
37019;SDS011;22932;52.442;16.896;2022-11-20T10:00:13;23.30;;;17.20;;
37019;SDS011;22932;52.442;16.896;2022-11-20T10:02:48;21.00;;;16.10;;
37019;SDS011;22932;52.442;16.896;2022-11-20T10:05:23;21.90;;;17.00;;
37019;SDS011;22932;52.442;16.896;2022-11-20T10:07:58;21.40;;;16.10;;
37019;SDS011;22932;52.442;16.896;2022-11-20T10:10:38;21.90;;;16.40;;
37019;SDS011;22932;52.442;16.896;2022-11-20T10:13:17;22.10;;;16.40;;
37019;SDS011;22932;52.442;16.896;2022-11-20T10:15:58;22.60;;;17.30;;
37019;SDS011;22932;52.442;16.896;2022-11-20T10:18:44;21.50;;;15.80;;
37019;SDS011;22932;52.442;16.896;2022-11-20T10:21:29;20.60;;;15.00;;
37019;SDS011;22932;52.442;16.896;2022-11-20T10:24:13;24.00;;;17.00;;
37019;SDS011;22932;52.442;16.896;2022-11-20T10:26:58;25.30;;;18.30;;
37019;SDS011;22932;52.442;16.896;2022-11-20T10:29:37;23.50;;;18.20;;
37019;SDS011;22932;52.442;16.896;2022-11-20T10:32:11;25.40;;;18.20;;
37019;SDS011;22932;52.442;16.896;2022-11-20T10:34:46;21.20;;;16.20;;
37019;SDS011;22932;52.442;16.896;2022-11-20T10:37:22;24.40;;;16.90;;
37019;SDS011;22932;52.442;16.896;2022-11-20T10:39:56;23.60;;;18.00;;
37019;SDS011;22932;52.442;16.896;2022-11-20T10:42:30;24.40;;;18.40;;
37019;SDS011;22932;52.442;16.896;2022-11-20T10:45:13;25.60;;;17.40;;
37019;SDS011;22932;52.442;16.896;2022-11-20T10:47:49;21.00;;;16.40;;
37019;SDS011;22932;52.442;16.896;2022-11-20T10:50:21;25.70;;;18.20;;
37019;SDS011;22932;52.442;16.896;2022-11-20T10:52:55;25.50;;;18.00;;
37019;SDS011;22932;52.442;16.896;2022-11-20T10:55:38;18.90;;;14.30;;
37019;SDS011;22932;52.442;16.896;2022-11-20T10:58:13;25.20;;;17.40;;
37019;SDS011;22932;52.442;16.896;2022-11-20T11:00:49;25.70;;;18.60;;
37019;SDS011;22932;52.442;16.896;2022-11-20T11:03:22;23.90;;;16.50;;
37019;SDS011;22932;52.442;16.896;2022-11-20T11:05:56;24.90;;;18.80;;
37019;SDS011;22932;52.442;16.896;2022-11-20T11:08:32;21.60;;;16.30;;
37019;SDS011;22932;52.442;16.896;2022-11-20T11:11:18;24.40;;;18.00;;
37019;SDS011;22932;52.442;16.896;2022-11-20T11:13:51;22.10;;;17.40;;
37019;SDS011;22932;52.442;16.896;2022-11-20T11:16:21;24.60;;;18.00;;
37019;SDS011;22932;52.442;16.896;2022-11-20T11:19:03;22.40;;;16.20;;
37019;SDS011;22932;52.442;16.896;2022-11-20T11:21:34;20.40;;;15.90;;
37019;SDS011;22932;52.442;16.896;2022-11-20T11:24:15;22.40;;;16.00;;
37019;SDS011;22932;52.442;16.896;2022-11-20T11:26:57;23.30;;;15.60;;
37019;SDS011;22932;52.442;16.896;2022-11-20T11:29:31;23.10;;;16.40;;
37019;SDS011;22932;52.442;16.896;2022-11-20T11:32:04;20.50;;;15.80;;
37019;SDS011;22932;52.442;16.896;2022-11-20T11:34:35;25.40;;;17.80;;
37019;SDS011;22932;52.442;16.896;2022-11-20T11:37:05;22.30;;;15.80;;
37019;SDS011;22932;52.442;16.896;2022-11-20T11:39:43;23.30;;;16.80;;
37019;SDS011;22932;52.442;16.896;2022-11-20T11:42:15;23.20;;;17.60;;
37019;SDS011;22932;52.442;16.896;2022-11-20T11:44:47;19.60;;;14.70;;
37019;SDS011;22932;52.442;16.896;2022-11-20T11:47:32;22.90;;;16.80;;
37019;SDS011;22932;52.442;16.896;2022-11-20T11:50:13;25.90;;;17.50;;
37019;SDS011;22932;52.442;16.896;2022-11-20T11:52:48;24.60;;;16.70;;
37019;SDS011;22932;52.442;16.896;2022-11-20T11:55:27;24.30;;;16.50;;
37019;SDS011;22932;52.442;16.896;2022-11-20T11:58:04;22.00;;;15.60;;
37019;SDS011;22932;52.442;16.896;2022-11-20T12:00:45;21.20;;;16.60;;
37019;SDS011;22932;52.442;16.896;2022-11-20T12:03:22;24.50;;;17.10;;
37019;SDS011;22932;52.442;16.896;2022-11-20T12:05:58;24.50;;;16.40;;
37019;SDS011;22932;52.442;16.896;2022-11-20T12:08:35;21.80;;;15.30;;
37019;SDS011;22932;52.442;16.896;2022-11-20T12:11:12;22.90;;;16.10;;
37019;SDS011;22932;52.442;16.896;2022-11-20T12:13:47;25.40;;;16.90;;
37019;SDS011;22932;52.442;16.896;2022-11-20T12:16:21;25.20;;;17.10;;
37019;SDS011;22932;52.442;16.896;2022-11-20T12:18:52;24.00;;;16.10;;
37019;SDS011;22932;52.442;16.896;2022-11-20T12:21:24;25.10;;;17.50;;
37019;SDS011;22932;52.442;16.896;2022-11-20T12:24:10;23.70;;;17.00;;
37019;SDS011;22932;52.442;16.896;2022-11-20T12:26:59;25.60;;;17.80;;
37019;SDS011;22932;52.442;16.896;2022-11-20T12:29:40;25.90;;;18.10;;
37019;SDS011;22932;52.442;16.896;2022-11-20T12:32:25;27.30;;;19.20;;
37019;SDS011;22932;52.442;16.896;2022-11-20T12:35:17;25.80;;;16.60;;
37019;SDS011;22932;52.442;16.896;2022-11-20T12:38:02;25.90;;;17.90;;
37019;SDS011;22932;52.442;16.896;2022-11-20T12:40:50;24.60;;;17.50;;
37019;SDS011;22932;52.442;16.896;2022-11-20T12:43:27;26.60;;;18.50;;
37019;SDS011;22932;52.442;16.896;2022-11-20T12:46:24;29.20;;;19.30;;
37019;SDS011;22932;52.442;16.896;2022-11-20T12:49:13;24.50;;;17.60;;
37019;SDS011;22932;52.442;16.896;2022-11-20T12:52:02;29.20;;;19.60;;
37019;SDS011;22932;52.442;16.896;2022-11-20T12:54:46;28.10;;;17.90;;
37019;SDS011;22932;52.442;16.896;2022-11-20T12:57:29;25.20;;;18.70;;
37019;SDS011;22932;52.442;16.896;2022-11-20T13:00:11;25.80;;;17.70;;
37019;SDS011;22932;52.442;16.896;2022-11-20T13:05:43;27.60;;;18.70;;
37019;SDS011;22932;52.442;16.896;2022-11-20T13:08:21;26.00;;;18.80;;
37019;SDS011;22932;52.442;16.896;2022-11-20T13:10:54;27.00;;;18.80;;
37019;SDS011;22932;52.442;16.896;2022-11-20T13:13:31;28.70;;;18.80;;
37019;SDS011;22932;52.442;16.896;2022-11-20T13:16:13;25.90;;;17.50;;
37019;SDS011;22932;52.442;16.896;2022-11-20T13:18:47;26.40;;;17.60;;
37019;SDS011;22932;52.442;16.896;2022-11-20T13:21:18;26.90;;;19.00;;
37019;SDS011;22932;52.442;16.896;2022-11-20T13:23:48;28.20;;;18.90;;
37019;SDS011;22932;52.442;16.896;2022-11-20T13:26:19;28.70;;;19.40;;
37019;SDS011;22932;52.442;16.896;2022-11-20T13:29:01;26.40;;;17.70;;
37019;SDS011;22932;52.442;16.896;2022-11-20T13:31:39;24.10;;;16.20;;
37019;SDS011;22932;52.442;16.896;2022-11-20T13:34:13;27.40;;;17.60;;
37019;SDS011;22932;52.442;16.896;2022-11-20T13:36:53;28.20;;;17.70;;
37019;SDS011;22932;52.442;16.896;2022-11-20T13:39:27;24.50;;;17.60;;
37019;SDS011;22932;52.442;16.896;2022-11-20T13:41:58;25.20;;;18.00;;
37019;SDS011;22932;52.442;16.896;2022-11-20T13:44:31;24.60;;;18.10;;
37019;SDS011;22932;52.442;16.896;2022-11-20T13:47:16;29.00;;;18.90;;
37019;SDS011;22932;52.442;16.896;2022-11-20T13:49:50;27.20;;;16.80;;
37019;SDS011;22932;52.442;16.896;2022-11-20T13:52:27;26.00;;;18.20;;
37019;SDS011;22932;52.442;16.896;2022-11-20T13:55:12;26.40;;;17.50;;
37019;SDS011;22932;52.442;16.896;2022-11-20T13:57:51;26.30;;;18.80;;
37019;SDS011;22932;52.442;16.896;2022-11-20T14:00:31;28.70;;;19.50;;
37019;SDS011;22932;52.442;16.896;2022-11-20T14:03:07;27.50;;;19.30;;
37019;SDS011;22932;52.442;16.896;2022-11-20T14:05:49;26.80;;;18.30;;
37019;SDS011;22932;52.442;16.896;2022-11-20T14:08:25;27.80;;;18.70;;
37019;SDS011;22932;52.442;16.896;2022-11-20T14:11:12;28.00;;;17.70;;
37019;SDS011;22932;52.442;16.896;2022-11-20T14:13:55;24.80;;;17.60;;
37019;SDS011;22932;52.442;16.896;2022-11-20T14:16:27;27.60;;;18.80;;
37019;SDS011;22932;52.442;16.896;2022-11-20T14:19:16;28.50;;;18.10;;
37019;SDS011;22932;52.442;16.896;2022-11-20T14:21:53;29.00;;;18.70;;
37019;SDS011;22932;52.442;16.896;2022-11-20T14:24:34;27.10;;;18.60;;
37019;SDS011;22932;52.442;16.896;2022-11-20T14:27:04;29.80;;;18.10;;
37019;SDS011;22932;52.442;16.896;2022-11-20T14:29:39;26.10;;;18.20;;
37019;SDS011;22932;52.442;16.896;2022-11-20T14:32:09;28.40;;;17.70;;
37019;SDS011;22932;52.442;16.896;2022-11-20T14:34:43;24.40;;;17.80;;
37019;SDS011;22932;52.442;16.896;2022-11-20T14:37:18;29.10;;;19.90;;
37019;SDS011;22932;52.442;16.896;2022-11-20T14:39:51;29.40;;;18.40;;
37019;SDS011;22932;52.442;16.896;2022-11-20T14:42:25;27.50;;;19.50;;
37019;SDS011;22932;52.442;16.896;2022-11-20T14:44:57;29.20;;;19.70;;
37019;SDS011;22932;52.442;16.896;2022-11-20T14:47:27;28.50;;;19.70;;
37019;SDS011;22932;52.442;16.896;2022-11-20T14:49:59;27.80;;;19.00;;
37019;SDS011;22932;52.442;16.896;2022-11-20T14:52:30;29.40;;;20.40;;
37019;SDS011;22932;52.442;16.896;2022-11-20T14:54:59;28.00;;;19.50;;
37019;SDS011;22932;52.442;16.896;2022-11-20T14:57:30;29.50;;;19.90;;
37019;SDS011;22932;52.442;16.896;2022-11-20T15:00:05;29.50;;;19.00;;
37019;SDS011;22932;52.442;16.896;2022-11-20T15:02:47;31.00;;;20.70;;
37019;SDS011;22932;52.442;16.896;2022-11-20T15:05:18;31.30;;;20.70;;
37019;SDS011;22932;52.442;16.896;2022-11-20T15:07:50;30.30;;;21.60;;
37019;SDS011;22932;52.442;16.896;2022-11-20T15:10:31;31.00;;;21.50;;
37019;SDS011;22932;52.442;16.896;2022-11-20T15:13:04;33.50;;;22.50;;
37019;SDS011;22932;52.442;16.896;2022-11-20T15:15:42;32.60;;;21.70;;
37019;SDS011;22932;52.442;16.896;2022-11-20T15:18:17;29.70;;;21.50;;
37019;SDS011;22932;52.442;16.896;2022-11-20T15:20:48;30.40;;;21.90;;
37019;SDS011;22932;52.442;16.896;2022-11-20T15:23:18;33.00;;;21.60;;
37019;SDS011;22932;52.442;16.896;2022-11-20T15:25:48;29.30;;;19.30;;
37019;SDS011;22932;52.442;16.896;2022-11-20T15:28:19;31.90;;;21.90;;
37019;SDS011;22932;52.442;16.896;2022-11-20T15:30:52;28.20;;;20.40;;
37019;SDS011;22932;52.442;16.896;2022-11-20T15:33:22;32.90;;;20.80;;
37019;SDS011;22932;52.442;16.896;2022-11-20T15:35:52;27.60;;;19.80;;
37019;SDS011;22932;52.442;16.896;2022-11-20T15:38:21;26.80;;;18.30;;
37019;SDS011;22932;52.442;16.896;2022-11-20T15:40:50;28.00;;;18.60;;
37019;SDS011;22932;52.442;16.896;2022-11-20T15:43:20;29.00;;;19.50;;
37019;SDS011;22932;52.442;16.896;2022-11-20T15:45:50;31.80;;;21.00;;
37019;SDS011;22932;52.442;16.896;2022-11-20T15:48:22;30.70;;;19.80;;
37019;SDS011;22932;52.442;16.896;2022-11-20T15:50:56;31.60;;;20.60;;
37019;SDS011;22932;52.442;16.896;2022-11-20T15:53:29;31.10;;;22.00;;
37019;SDS011;22932;52.442;16.896;2022-11-20T15:55:59;29.60;;;20.90;;
37019;SDS011;22932;52.442;16.896;2022-11-20T15:58:28;32.50;;;22.20;;
37019;SDS011;22932;52.442;16.896;2022-11-20T16:00:58;35.60;;;24.10;;
37019;SDS011;22932;52.442;16.896;2022-11-20T16:03:27;38.10;;;25.50;;
37019;SDS011;22932;52.442;16.896;2022-11-20T16:05:57;33.90;;;23.40;;
37019;SDS011;22932;52.442;16.896;2022-11-20T16:08:26;41.60;;;26.80;;
37019;SDS011;22932;52.442;16.896;2022-11-20T16:10:56;38.10;;;25.40;;
37019;SDS011;22932;52.442;16.896;2022-11-20T16:13:25;39.70;;;25.90;;
37019;SDS011;22932;52.442;16.896;2022-11-20T16:16:17;38.20;;;24.60;;
37019;SDS011;22932;52.442;16.896;2022-11-20T16:18:49;35.00;;;23.90;;
37019;SDS011;22932;52.442;16.896;2022-11-20T16:21:19;39.50;;;27.20;;
37019;SDS011;22932;52.442;16.896;2022-11-20T16:23:53;37.40;;;24.70;;
37019;SDS011;22932;52.442;16.896;2022-11-20T16:26:24;36.60;;;25.50;;
37019;SDS011;22932;52.442;16.896;2022-11-20T16:28:54;35.40;;;24.80;;
37019;SDS011;22932;52.442;16.896;2022-11-20T16:31:25;38.50;;;24.70;;
37019;SDS011;22932;52.442;16.896;2022-11-20T16:33:55;33.60;;;23.40;;
37019;SDS011;22932;52.442;16.896;2022-11-20T16:36:26;35.90;;;25.10;;
37019;SDS011;22932;52.442;16.896;2022-11-20T16:38:58;34.90;;;23.50;;
37019;SDS011;22932;52.442;16.896;2022-11-20T16:41:29;34.50;;;23.50;;
37019;SDS011;22932;52.442;16.896;2022-11-20T16:44:00;36.30;;;23.80;;
37019;SDS011;22932;52.442;16.896;2022-11-20T16:46:35;39.30;;;25.70;;
37019;SDS011;22932;52.442;16.896;2022-11-20T16:49:06;38.40;;;24.90;;
37019;SDS011;22932;52.442;16.896;2022-11-20T16:51:40;35.60;;;25.90;;
37019;SDS011;22932;52.442;16.896;2022-11-20T16:54:10;36.10;;;25.90;;
37019;SDS011;22932;52.442;16.896;2022-11-20T16:56:39;42.40;;;25.40;;
37019;SDS011;22932;52.442;16.896;2022-11-20T16:59:09;40.20;;;27.00;;
37019;SDS011;22932;52.442;16.896;2022-11-20T17:01:38;36.90;;;25.60;;
37019;SDS011;22932;52.442;16.896;2022-11-20T17:04:09;39.40;;;25.70;;
37019;SDS011;22932;52.442;16.896;2022-11-20T17:06:40;37.90;;;25.40;;
37019;SDS011;22932;52.442;16.896;2022-11-20T17:09:10;38.20;;;26.20;;
37019;SDS011;22932;52.442;16.896;2022-11-20T17:11:40;38.70;;;25.30;;
37019;SDS011;22932;52.442;16.896;2022-11-20T17:14:10;39.60;;;27.20;;
37019;SDS011;22932;52.442;16.896;2022-11-20T17:16:40;38.00;;;26.00;;
37019;SDS011;22932;52.442;16.896;2022-11-20T17:19:09;39.80;;;25.70;;
37019;SDS011;22932;52.442;16.896;2022-11-20T17:21:39;41.70;;;26.80;;
37019;SDS011;22932;52.442;16.896;2022-11-20T17:24:09;37.30;;;26.10;;
37019;SDS011;22932;52.442;16.896;2022-11-20T17:26:41;42.00;;;26.70;;
37019;SDS011;22932;52.442;16.896;2022-11-20T17:29:12;40.30;;;26.70;;
37019;SDS011;22932;52.442;16.896;2022-11-20T17:31:43;38.70;;;27.10;;
37019;SDS011;22932;52.442;16.896;2022-11-20T17:36:42;42.70;;;26.50;;
37019;SDS011;22932;52.442;16.896;2022-11-20T17:39:12;37.80;;;26.50;;
37019;SDS011;22932;52.442;16.896;2022-11-20T17:41:43;39.20;;;25.40;;
37019;SDS011;22932;52.442;16.896;2022-11-20T17:44:33;38.30;;;25.80;;
37019;SDS011;22932;52.442;16.896;2022-11-20T17:47:02;39.40;;;25.70;;
37019;SDS011;22932;52.442;16.896;2022-11-20T17:49:32;37.20;;;24.50;;
37019;SDS011;22932;52.442;16.896;2022-11-20T17:52:02;35.80;;;24.40;;
37019;SDS011;22932;52.442;16.896;2022-11-20T17:54:31;36.50;;;25.10;;
37019;SDS011;22932;52.442;16.896;2022-11-20T17:57:01;39.70;;;25.30;;
37019;SDS011;22932;52.442;16.896;2022-11-20T17:59:48;35.50;;;24.00;;
37019;SDS011;22932;52.442;16.896;2022-11-20T18:02:17;37.90;;;25.40;;
37019;SDS011;22932;52.442;16.896;2022-11-20T18:04:47;38.40;;;25.00;;
37019;SDS011;22932;52.442;16.896;2022-11-20T18:07:16;38.60;;;27.00;;
37019;SDS011;22932;52.442;16.896;2022-11-20T18:09:46;38.00;;;26.70;;
37019;SDS011;22932;52.442;16.896;2022-11-20T18:12:15;41.50;;;28.10;;
37019;SDS011;22932;52.442;16.896;2022-11-20T18:14:45;47.20;;;30.20;;
37019;SDS011;22932;52.442;16.896;2022-11-20T18:17:15;44.50;;;29.40;;
37019;SDS011;22932;52.442;16.896;2022-11-20T18:19:45;43.80;;;28.00;;
37019;SDS011;22932;52.442;16.896;2022-11-20T18:22:17;42.30;;;29.10;;
37019;SDS011;22932;52.442;16.896;2022-11-20T18:24:46;41.80;;;28.40;;
37019;SDS011;22932;52.442;16.896;2022-11-20T18:27:16;40.70;;;28.40;;
37019;SDS011;22932;52.442;16.896;2022-11-20T18:29:48;42.40;;;28.00;;
37019;SDS011;22932;52.442;16.896;2022-11-20T18:32:18;40.00;;;27.20;;
37019;SDS011;22932;52.442;16.896;2022-11-20T18:34:48;46.20;;;29.50;;
37019;SDS011;22932;52.442;16.896;2022-11-20T18:37:18;45.90;;;30.10;;
37019;SDS011;22932;52.442;16.896;2022-11-20T18:39:47;47.40;;;32.50;;
37019;SDS011;22932;52.442;16.896;2022-11-20T18:42:17;47.60;;;31.40;;
37019;SDS011;22932;52.442;16.896;2022-11-20T18:45:04;48.20;;;31.10;;
37019;SDS011;22932;52.442;16.896;2022-11-20T18:47:35;49.00;;;31.60;;
37019;SDS011;22932;52.442;16.896;2022-11-20T18:50:06;44.20;;;28.60;;
37019;SDS011;22932;52.442;16.896;2022-11-20T18:52:38;45.20;;;32.10;;
37019;SDS011;22932;52.442;16.896;2022-11-20T18:55:10;49.40;;;31.50;;
37019;SDS011;22932;52.442;16.896;2022-11-20T18:57:39;49.60;;;31.70;;
37019;SDS011;22932;52.442;16.896;2022-11-20T19:00:09;49.90;;;31.40;;
37019;SDS011;22932;52.442;16.896;2022-11-20T19:02:40;50.40;;;32.20;;
37019;SDS011;22932;52.442;16.896;2022-11-20T19:05:09;47.10;;;30.30;;
37019;SDS011;22932;52.442;16.896;2022-11-20T19:07:40;46.20;;;30.40;;
37019;SDS011;22932;52.442;16.896;2022-11-20T19:10:09;49.90;;;30.30;;
37019;SDS011;22932;52.442;16.896;2022-11-20T19:12:39;47.00;;;29.90;;
37019;SDS011;22932;52.442;16.896;2022-11-20T19:15:09;45.00;;;28.00;;
37019;SDS011;22932;52.442;16.896;2022-11-20T19:17:39;43.40;;;29.50;;
37019;SDS011;22932;52.442;16.896;2022-11-20T19:20:09;47.20;;;30.00;;
37019;SDS011;22932;52.442;16.896;2022-11-20T19:22:39;50.60;;;31.50;;
37019;SDS011;22932;52.442;16.896;2022-11-20T19:25:08;51.70;;;31.50;;
37019;SDS011;22932;52.442;16.896;2022-11-20T19:27:38;46.10;;;30.20;;
37019;SDS011;22932;52.442;16.896;2022-11-20T19:30:08;46.60;;;31.90;;
37019;SDS011;22932;52.442;16.896;2022-11-20T19:32:39;42.40;;;29.00;;
37019;SDS011;22932;52.442;16.896;2022-11-20T19:35:08;50.20;;;32.80;;
37019;SDS011;22932;52.442;16.896;2022-11-20T19:37:38;47.50;;;31.30;;
37019;SDS011;22932;52.442;16.896;2022-11-20T19:40:08;47.50;;;32.20;;
37019;SDS011;22932;52.442;16.896;2022-11-20T19:42:38;45.30;;;30.70;;
37019;SDS011;22932;52.442;16.896;2022-11-20T19:45:09;46.50;;;30.40;;
37019;SDS011;22932;52.442;16.896;2022-11-20T19:47:38;50.80;;;31.60;;
37019;SDS011;22932;52.442;16.896;2022-11-20T19:50:08;47.10;;;30.60;;
37019;SDS011;22932;52.442;16.896;2022-11-20T19:52:38;51.70;;;33.00;;
37019;SDS011;22932;52.442;16.896;2022-11-20T19:55:08;52.20;;;31.00;;
37019;SDS011;22932;52.442;16.896;2022-11-20T19:57:37;34.70;;;23.60;;
37019;SDS011;22932;52.442;16.896;2022-11-20T20:00:08;52.40;;;32.70;;
37019;SDS011;22932;52.442;16.896;2022-11-20T20:02:39;52.70;;;30.70;;
37019;SDS011;22932;52.442;16.896;2022-11-20T20:05:09;48.10;;;31.10;;
37019;SDS011;22932;52.442;16.896;2022-11-20T20:07:38;50.60;;;31.80;;
37019;SDS011;22932;52.442;16.896;2022-11-20T20:10:09;51.60;;;32.30;;
37019;SDS011;22932;52.442;16.896;2022-11-20T20:12:38;47.20;;;32.00;;
37019;SDS011;22932;52.442;16.896;2022-11-20T20:15:08;48.20;;;31.40;;
37019;SDS011;22932;52.442;16.896;2022-11-20T20:17:38;46.60;;;29.90;;
37019;SDS011;22932;52.442;16.896;2022-11-20T20:20:08;46.80;;;29.50;;
37019;SDS011;22932;52.442;16.896;2022-11-20T20:22:38;42.60;;;29.90;;
37019;SDS011;22932;52.442;16.896;2022-11-20T20:25:08;51.60;;;32.00;;
37019;SDS011;22932;52.442;16.896;2022-11-20T20:27:38;35.00;;;21.80;;
37019;SDS011;22932;52.442;16.896;2022-11-20T20:30:08;47.10;;;29.50;;
37019;SDS011;22932;52.442;16.896;2022-11-20T20:32:39;42.90;;;27.40;;
37019;SDS011;22932;52.442;16.896;2022-11-20T20:35:09;46.70;;;28.90;;
37019;SDS011;22932;52.442;16.896;2022-11-20T20:37:38;46.00;;;28.60;;
37019;SDS011;22932;52.442;16.896;2022-11-20T20:40:09;45.60;;;27.20;;
37019;SDS011;22932;52.442;16.896;2022-11-20T20:42:39;42.40;;;27.80;;
37019;SDS011;22932;52.442;16.896;2022-11-20T20:45:09;42.10;;;27.80;;
37019;SDS011;22932;52.442;16.896;2022-11-20T20:47:39;41.90;;;28.00;;
37019;SDS011;22932;52.442;16.896;2022-11-20T20:50:10;34.30;;;22.10;;
37019;SDS011;22932;52.442;16.896;2022-11-20T20:55:08;44.60;;;28.40;;
37019;SDS011;22932;52.442;16.896;2022-11-20T20:57:38;45.70;;;28.70;;
37019;SDS011;22932;52.442;16.896;2022-11-20T21:00:08;47.10;;;29.20;;
37019;SDS011;22932;52.442;16.896;2022-11-20T21:02:38;45.30;;;28.20;;
37019;SDS011;22932;52.442;16.896;2022-11-20T21:05:08;45.70;;;29.30;;
37019;SDS011;22932;52.442;16.896;2022-11-20T21:07:38;46.30;;;27.70;;
37019;SDS011;22932;52.442;16.896;2022-11-20T21:10:21;47.40;;;29.40;;
37019;SDS011;22932;52.442;16.896;2022-11-20T21:12:50;43.50;;;29.30;;
37019;SDS011;22932;52.442;16.896;2022-11-20T21:15:20;45.80;;;28.90;;
37019;SDS011;22932;52.442;16.896;2022-11-20T21:17:49;41.30;;;27.00;;
37019;SDS011;22932;52.442;16.896;2022-11-20T21:20:19;46.60;;;27.20;;
37019;SDS011;22932;52.442;16.896;2022-11-20T21:23:10;41.00;;;27.50;;
37019;SDS011;22932;52.442;16.896;2022-11-20T21:25:39;43.70;;;27.00;;
37019;SDS011;22932;52.442;16.896;2022-11-20T21:28:09;43.90;;;27.10;;
37019;SDS011;22932;52.442;16.896;2022-11-20T21:30:38;41.90;;;26.50;;
37019;SDS011;22932;52.442;16.896;2022-11-20T21:33:08;45.80;;;28.80;;
37019;SDS011;22932;52.442;16.896;2022-11-20T21:35:38;40.00;;;25.90;;
37019;SDS011;22932;52.442;16.896;2022-11-20T21:38:07;49.60;;;29.60;;
37019;SDS011;22932;52.442;16.896;2022-11-20T21:40:37;44.80;;;28.20;;
37019;SDS011;22932;52.442;16.896;2022-11-20T21:43:06;43.70;;;27.30;;
37019;SDS011;22932;52.442;16.896;2022-11-20T21:45:36;43.00;;;27.10;;
37019;SDS011;22932;52.442;16.896;2022-11-20T21:48:05;41.80;;;28.00;;
37019;SDS011;22932;52.442;16.896;2022-11-20T21:50:35;43.80;;;27.40;;
37019;SDS011;22932;52.442;16.896;2022-11-20T21:53:04;41.00;;;27.40;;
37019;SDS011;22932;52.442;16.896;2022-11-20T21:55:34;40.10;;;25.00;;
37019;SDS011;22932;52.442;16.896;2022-11-20T21:58:03;44.10;;;27.70;;
37019;SDS011;22932;52.442;16.896;2022-11-20T22:00:33;41.50;;;26.50;;
37019;SDS011;22932;52.442;16.896;2022-11-20T22:03:03;40.60;;;24.80;;
37019;SDS011;22932;52.442;16.896;2022-11-20T22:05:32;42.30;;;26.80;;
37019;SDS011;22932;52.442;16.896;2022-11-20T22:08:01;40.40;;;24.60;;